Time;durP1;ratioP1;P1;durP2;ratioP2;P2;SDS_P1;SDS_P2;PMS_P1;PMS_P2;Temp;Humidity;BMP_temperature;BMP_pressure;BME280_temperature;BME280_humidity;BME280_pressure;Samples;Min_cycle;Max_cycle;Signal;HPM_P1;HPM_P2
2023/04/12 00:01:57;;;;;;;;;;;8.10;99.90;;;;;;5013023;28;19921;-70
2023/04/12 00:04:25;;;;;;;;;;;8.30;99.90;;;;;;5012353;28;20262;-70
2023/04/12 00:06:54;;;;;;;;;;;8.30;99.90;;;;;;4995362;28;20007;-70
2023/04/12 00:09:20;;;;;;;;;;;8.30;99.90;;;;;;4994966;28;20008;-70
2023/04/12 00:11:46;;;;;;;;;;;8.40;99.90;;;;;;4997197;28;19925;-70
2023/04/12 00:14:11;;;;;;;;;;;8.50;99.90;;;;;;5013067;28;20472;-70
2023/04/12 00:16:37;;;;;;;;;;;8.40;99.90;;;;;;5012661;28;19922;-70
2023/04/12 00:19:03;;;;;;;;;;;8.40;99.90;;;;;;4995524;28;19922;-71
2023/04/12 00:21:29;;;;;;;;;;;8.50;99.90;;;;;;5009276;28;19928;-70
2023/04/12 00:23:55;;;;;;;;;;;8.40;99.90;;;;;;5031986;28;19929;-71
2023/04/12 00:26:21;;;;;;;;;;;8.40;99.90;;;;;;5033035;28;19921;-71
2023/04/12 00:28:46;;;;;;;;;;;8.50;99.90;;;;;;5032803;28;19921;-71
2023/04/12 00:31:12;;;;;;;;;;;8.60;99.90;;;;;;5019853;28;20284;-70
2023/04/12 00:33:38;;;;;;;;;;;8.60;99.90;;;;;;4995380;28;19932;-70
2023/04/12 00:36:04;;;;;;;;;;;8.60;99.90;;;;;;5012859;28;19972;-70
2023/04/12 00:38:29;;;;;;;;;;;8.40;99.90;;;;;;5012654;28;20266;-70
2023/04/12 00:40:55;;;;;;;;;;;8.40;99.90;;;;;;5012711;28;19921;-71
2023/04/12 00:43:21;;;;;;;;;;;8.30;99.90;;;;;;5012800;28;19969;-70
2023/04/12 00:45:46;;;;;;;;;;;8.60;99.90;;;;;;5017535;28;19921;-70
2023/04/12 00:48:12;;;;;;;;;;;8.40;99.90;;;;;;5014962;28;20023;-70
2023/04/12 00:50:43;;;;;;;;;;;8.40;99.90;;;;;;5032565;28;19994;-70
2023/04/12 00:53:12;;;;;;;;;;;8.30;99.90;;;;;;5014086;28;19932;-70
2023/04/12 00:55:44;;;;;;;;;;;8.40;99.90;;;;;;5020729;28;19932;-70
2023/04/12 00:58:10;;;;;;;;;;;8.30;99.90;;;;;;4994885;28;20309;-70
2023/04/12 01:00:36;;;;;;;;;;;9.30;99.90;;;;;;5001585;28;20381;-70
2023/04/12 01:03:04;;;;;;;;;;;8.40;99.90;;;;;;5015065;28;19983;-71
2023/04/12 01:05:29;;;;;;;;;;;8.40;99.90;;;;;;5007935;28;20289;-71
2023/04/12 01:08:14;;;;;;;;;;;8.60;99.90;;;;;;4998591;28;19917;-70
2023/04/12 01:10:39;;;;;;;;;;;8.50;99.90;;;;;;5022395;28;19921;-70
2023/04/12 01:13:20;;;;;;;;;;;8.40;99.90;;;;;;5017504;28;20277;-70
2023/04/12 01:16:15;;;;;;;;;;;8.40;99.90;;;;;;5036088;28;19921;-70
2023/04/12 01:18:44;;;;;;;;;;;8.40;99.90;;;;;;5009387;28;20015;-70
2023/04/12 01:21:15;;;;;;;;;;;8.40;99.90;;;;;;5015481;28;19927;-70
2023/04/12 01:23:44;;;;;;;;;;;8.40;99.90;;;;;;5018520;28;19921;-70
2023/04/12 01:26:31;;;;;;;;;;;8.40;99.90;;;;;;5035378;28;20372;-70
2023/04/12 01:28:58;;;;;;;;;;;8.40;99.90;;;;;;5017074;28;19921;-70
2023/04/12 01:31:25;;;;;;;;;;;8.30;99.90;;;;;;5029105;28;20023;-70
2023/04/12 01:33:50;;;;;;;;;;;8.60;99.90;;;;;;4997715;28;19921;-70
2023/04/12 01:36:18;;;;;;;;;;;8.20;99.90;;;;;;4998568;28;19975;-70
2023/04/12 01:38:47;;;;;;;;;;;8.20;99.90;;;;;;5016008;28;19921;-70
2023/04/12 01:41:12;;;;;;;;;;;8.20;99.90;;;;;;5014354;28;19922;-71
2023/04/12 01:43:42;;;;;;;;;;;8.30;99.90;;;;;;4998339;28;19940;-72
2023/04/12 01:46:15;;;;;;;;;;;8.30;99.90;;;;;;5026510;28;19921;-72
2023/04/12 01:48:44;;;;;;;;;;;8.30;99.90;;;;;;5033621;28;19920;-72
2023/04/12 01:51:14;;;;;;;;;;;8.20;99.90;;;;;;5017502;28;19924;-72
2023/04/12 01:53:55;;;;;;;;;;;8.20;99.90;;;;;;5035610;28;19988;-72
2023/04/12 01:56:21;;;;;;;;;;;8.20;99.90;;;;;;5014132;28;20281;-72
2023/04/12 01:58:49;;;;;;;;;;;8.20;99.90;;;;;;5015481;28;19921;-72
2023/04/12 02:01:16;;;;;;;;;;;8.90;99.90;;;;;;4997389;28;19922;-72
2023/04/12 02:03:42;;;;;;;;;;;8.70;99.90;;;;;;5014649;28;19928;-72
2023/04/12 02:06:11;;;;;;;;;;;8.30;99.90;;;;;;5015140;28;20020;-72
2023/04/12 02:08:36;;;;;;;;;;;8.30;99.90;;;;;;4997830;28;19921;-72
2023/04/12 02:11:09;;;;;;;;;;;8.40;99.90;;;;;;4995892;28;19956;-72
2023/04/12 02:13:34;;;;;;;;;;;8.30;99.90;;;;;;4997778;28;20377;-72
2023/04/12 02:16:01;;;;;;;;;;;8.40;99.90;;;;;;5013860;28;19971;-72
2023/04/12 02:18:27;;;;;;;;;;;8.30;99.90;;;;;;5027780;28;19980;-72
2023/04/12 02:20:53;;;;;;;;;;;8.40;99.90;;;;;;5034181;28;20032;-72
2023/04/12 02:23:18;;;;;;;;;;;8.90;99.90;;;;;;5034047;28;19932;-72
2023/04/12 02:25:45;;;;;;;;;;;8.30;99.90;;;;;;5016795;28;19963;-72
2023/04/12 02:28:12;;;;;;;;;;;8.50;99.90;;;;;;5034068;28;19979;-72
2023/04/12 02:30:40;;;;;;;;;;;8.80;99.90;;;;;;5034038;28;19924;-72
2023/04/12 02:33:08;;;;;;;;;;;8.40;99.90;;;;;;5034506;28;19968;-72
2023/04/12 02:35:35;;;;;;;;;;;8.40;99.90;;;;;;5034718;28;20331;-72
2023/04/12 02:38:02;;;;;;;;;;;8.40;99.90;;;;;;5031544;28;20274;-72
2023/04/12 02:40:28;;;;;;;;;;;9.10;99.90;;;;;;5033804;28;19925;-72
2023/04/12 02:42:54;;;;;;;;;;;8.30;99.90;;;;;;5016275;28;19921;-72
2023/04/12 02:45:22;;;;;;;;;;;8.40;99.90;;;;;;5033821;28;19921;-72
2023/04/12 02:47:49;;;;;;;;;;;9.50;99.90;;;;;;5034130;28;19943;-72
2023/04/12 02:50:15;;;;;;;;;;;8.30;99.90;;;;;;5034132;28;19921;-72
2023/04/12 02:52:40;;;;;;;;;;;8.30;99.90;;;;;;5015434;28;19921;-72
2023/04/12 02:55:06;;;;;;;;;;;8.30;99.90;;;;;;5033840;28;19925;-72
2023/04/12 02:57:32;;;;;;;;;;;8.40;99.90;;;;;;5016256;28;19967;-72
2023/04/12 02:59:57;;;;;;;;;;;8.50;99.90;;;;;;5033309;28;19940;-72
2023/04/12 03:02:23;;;;;;;;;;;8.20;99.90;;;;;;5034291;28;20328;-72
2023/04/12 03:04:49;;;;;;;;;;;9.00;99.90;;;;;;5016653;28;20012;-72
2023/04/12 03:07:15;;;;;;;;;;;8.30;99.90;;;;;;5014629;28;19979;-72
2023/04/12 03:09:41;;;;;;;;;;;8.80;99.90;;;;;;5016360;28;19921;-72
2023/04/12 03:12:07;;;;;;;;;;;8.30;99.90;;;;;;5033072;28;19921;-72
2023/04/12 03:14:32;;;;;;;;;;;8.20;99.90;;;;;;5029221;28;20395;-72
2023/04/12 03:16:58;;;;;;;;;;;8.20;99.90;;;;;;4996199;28;20384;-72
2023/04/12 03:19:23;;;;;;;;;;;8.40;99.90;;;;;;4997024;28;20782;-72
2023/04/12 03:21:49;;;;;;;;;;;8.20;99.90;;;;;;4996343;28;19917;-72
2023/04/12 03:24:14;;;;;;;;;;;8.10;99.90;;;;;;5012779;28;20008;-72
2023/04/12 03:26:41;;;;;;;;;;;8.10;99.90;;;;;;5005657;28;19966;-72
2023/04/12 03:29:09;;;;;;;;;;;8.10;99.90;;;;;;5033433;28;20008;-72
2023/04/12 03:31:35;;;;;;;;;;;8.10;99.90;;;;;;5016111;28;20063;-71
2023/04/12 03:34:01;;;;;;;;;;;8.20;99.90;;;;;;5015067;28;20011;-72
2023/04/12 03:36:28;;;;;;;;;;;8.10;99.90;;;;;;5024862;28;20255;-72
2023/04/12 03:38:53;;;;;;;;;;;8.10;99.90;;;;;;5013203;28;19921;-72
2023/04/12 03:41:22;;;;;;;;;;;8.10;99.90;;;;;;5012917;28;20296;-71
2023/04/12 03:43:48;;;;;;;;;;;8.00;99.90;;;;;;5013392;28;19921;-72
2023/04/12 03:46:14;;;;;;;;;;;9.20;99.90;;;;;;5019187;28;19944;-71
2023/04/12 03:48:40;;;;;;;;;;;7.90;99.90;;;;;;5014782;28;20023;-71
2023/04/12 03:51:06;;;;;;;;;;;7.90;99.90;;;;;;5015572;28;20351;-72
2023/04/12 03:53:32;;;;;;;;;;;8.00;99.90;;;;;;5008757;28;20304;-72
2023/04/12 03:55:58;;;;;;;;;;;7.90;99.90;;;;;;4994876;28;19987;-72
2023/04/12 03:58:24;;;;;;;;;;;8.00;99.90;;;;;;4995684;28;19976;-72
2023/04/12 04:00:49;;;;;;;;;;;7.90;99.90;;;;;;5013966;28;19922;-71
2023/04/12 04:03:15;;;;;;;;;;;7.90;99.90;;;;;;4994741;28;19979;-72
2023/04/12 04:05:41;;;;;;;;;;;7.90;99.90;;;;;;5013080;28;19921;-72
2023/04/12 04:08:07;;;;;;;;;;;7.90;99.90;;;;;;5013009;28;19930;-71
2023/04/12 04:10:32;;;;;;;;;;;7.90;99.90;;;;;;4995556;28;20376;-71
2023/04/12 04:12:58;;;;;;;;;;;7.90;99.90;;;;;;5013487;28;19925;-72
2023/04/12 04:15:26;;;;;;;;;;;7.90;99.90;;;;;;4995344;28;20381;-72
2023/04/12 04:17:55;;;;;;;;;;;7.70;99.90;;;;;;4996314;28;19921;-71
2023/04/12 04:20:21;;;;;;;;;;;8.60;99.90;;;;;;5015556;28;19928;-72
2023/04/12 04:22:47;;;;;;;;;;;7.80;99.90;;;;;;4994756;28;19925;-72
2023/04/12 04:25:13;;;;;;;;;;;7.80;99.90;;;;;;5015609;28;19960;-72
2023/04/12 04:27:39;;;;;;;;;;;7.70;99.90;;;;;;4997344;28;20020;-72
2023/04/12 04:30:05;;;;;;;;;;;7.90;99.90;;;;;;5013969;28;19921;-71
2023/04/12 04:32:32;;;;;;;;;;;7.70;99.90;;;;;;4997920;28;19928;-72
2023/04/12 04:35:01;;;;;;;;;;;7.70;99.90;;;;;;5015648;28;19975;-70
2023/04/12 04:37:29;;;;;;;;;;;7.70;99.90;;;;;;5001234;28;20310;-71
2023/04/12 04:39:55;;;;;;;;;;;7.70;99.90;;;;;;4999700;28;19976;-71
2023/04/12 04:42:21;;;;;;;;;;;7.80;99.90;;;;;;5019386;28;19968;-70
2023/04/12 04:44:49;;;;;;;;;;;7.60;99.90;;;;;;5019614;28;19921;-69
2023/04/12 04:47:18;;;;;;;;;;;7.70;99.90;;;;;;5037727;28;19963;-72
2023/04/12 04:49:46;;;;;;;;;;;7.70;99.90;;;;;;5019712;28;19967;-71
2023/04/12 04:52:14;;;;;;;;;;;7.80;99.90;;;;;;5037743;28;19928;-72
2023/04/12 04:54:40;;;;;;;;;;;7.80;99.90;;;;;;5005591;28;19921;-72
2023/04/12 04:57:10;;;;;;;;;;;7.70;99.90;;;;;;5001070;28;19925;-69
2023/04/12 04:59:36;;;;;;;;;;;7.70;99.90;;;;;;5000992;28;19928;-71
2023/04/12 05:02:02;;;;;;;;;;;7.60;99.90;;;;;;5018534;28;19929;-71
2023/04/12 05:04:27;;;;;;;;;;;7.70;99.90;;;;;;5018081;28;19944;-72
2023/04/12 05:06:53;;;;;;;;;;;7.70;99.90;;;;;;5015554;28;19974;-71
2023/04/12 05:09:24;;;;;;;;;;;7.70;99.90;;;;;;5007263;28;19925;-72
2023/04/12 05:11:53;;;;;;;;;;;7.70;99.90;;;;;;5035630;28;19928;-72
2023/04/12 05:14:18;;;;;;;;;;;7.10;99.90;;;;;;5016767;28;19932;-72
2023/04/12 05:16:44;;;;;;;;;;;7.80;99.90;;;;;;5018096;28;19921;-72
2023/04/12 05:19:10;;;;;;;;;;;7.80;99.90;;;;;;5034281;28;20522;-71
2023/04/12 05:21:35;;;;;;;;;;;7.70;99.90;;;;;;5017967;28;19928;-72
2023/04/12 05:24:01;;;;;;;;;;;7.80;99.90;;;;;;5009113;28;19921;-72
2023/04/12 05:26:29;;;;;;;;;;;8.00;99.90;;;;;;5035191;28;19975;-72
2023/04/12 05:28:55;;;;;;;;;;;7.60;99.90;;;;;;5035626;28;19944;-69
2023/04/12 05:31:20;;;;;;;;;;;7.70;99.90;;;;;;5018355;28;20384;-69
2023/04/12 05:33:48;;;;;;;;;;;7.70;99.90;;;;;;5015901;28;19921;-72
2023/04/12 05:36:13;;;;;;;;;;;7.80;99.90;;;;;;5035179;28;19927;-70
2023/04/12 05:38:39;;;;;;;;;;;7.70;99.90;;;;;;5035558;28;20004;-72
2023/04/12 05:41:04;;;;;;;;;;;7.80;99.90;;;;;;5006786;28;20385;-74
2023/04/12 05:43:31;;;;;;;;;;;7.60;99.90;;;;;;5015988;28;19975;-72
2023/04/12 05:45:57;;;;;;;;;;;8.40;99.90;;;;;;5004179;28;19984;-73
2023/04/12 05:48:23;;;;;;;;;;;7.70;99.90;;;;;;5012361;28;19960;-71
2023/04/12 05:50:51;;;;;;;;;;;7.80;99.90;;;;;;5028539;28;19983;-73
2023/04/12 05:53:17;;;;;;;;;;;7.80;99.90;;;;;;5003965;28;19921;-73
2023/04/12 05:55:43;;;;;;;;;;;8.40;99.90;;;;;;5027291;28;20483;-73
2023/04/12 05:58:09;;;;;;;;;;;8.20;99.90;;;;;;5016936;28;20384;-74
2023/04/12 06:00:37;;;;;;;;;;;7.80;99.90;;;;;;5035218;28;20296;-71
2023/04/12 06:03:03;;;;;;;;;;;8.00;99.90;;;;;;5010942;28;19999;-71
2023/04/12 06:05:29;;;;;;;;;;;7.80;99.90;;;;;;5028985;28;19929;-70
2023/04/12 06:07:58;;;;;;;;;;;7.70;99.90;;;;;;5004659;28;19925;-71
2023/04/12 06:10:24;;;;;;;;;;;7.70;99.90;;;;;;5016843;28;19948;-69
2023/04/12 06:12:56;;;;;;;;;;;7.70;99.90;;;;;;5032421;28;19925;-69
2023/04/12 06:15:21;;;;;;;;;;;7.70;99.90;;;;;;5013948;28;19921;-69
2023/04/12 06:17:53;;;;;;;;;;;7.70;99.90;;;;;;5014396;28;19975;-69
2023/04/12 06:20:18;;;;;;;;;;;7.70;99.90;;;;;;5013838;28;20373;-69
2023/04/12 06:22:44;;;;;;;;;;;7.80;99.90;;;;;;5012593;28;19932;-69
2023/04/12 06:25:09;;;;;;;;;;;7.70;99.90;;;;;;5030853;28;20317;-70
2023/04/12 06:27:35;;;;;;;;;;;8.60;99.90;;;;;;5031399;28;19928;-69
2023/04/12 06:30:00;;;;;;;;;;;7.80;99.90;;;;;;5030420;28;19996;-69
2023/04/12 06:32:26;;;;;;;;;;;7.80;99.90;;;;;;5030637;28;19928;-69
2023/04/12 06:34:51;;;;;;;;;;;7.80;99.90;;;;;;5015092;28;19921;-69
2023/04/12 06:37:17;;;;;;;;;;;8.50;99.90;;;;;;5015730;28;19925;-69
2023/04/12 06:39:42;;;;;;;;;;;7.90;99.90;;;;;;5012698;28;20270;-69
2023/04/12 06:42:08;;;;;;;;;;;7.90;99.90;;;;;;4997080;28;20015;-69
2023/04/12 06:44:34;;;;;;;;;;;7.80;99.90;;;;;;4996067;28;20348;-70
2023/04/12 06:46:59;;;;;;;;;;;8.00;99.90;;;;;;5014389;28;19929;-69
2023/04/12 06:49:25;;;;;;;;;;;7.80;99.90;;;;;;5014620;28;19921;-69
2023/04/12 06:51:50;;;;;;;;;;;7.80;99.90;;;;;;4995686;28;19921;-69
2023/04/12 06:54:16;;;;;;;;;;;7.80;99.90;;;;;;5014492;28;19926;-69
2023/04/12 06:56:41;;;;;;;;;;;7.90;99.90;;;;;;4996686;28;20085;-69
2023/04/12 06:59:07;;;;;;;;;;;7.90;99.90;;;;;;5013134;28;19921;-69
2023/04/12 07:01:36;;;;;;;;;;;7.90;99.90;;;;;;4995938;28;20011;-69
2023/04/12 07:04:05;;;;;;;;;;;8.00;99.90;;;;;;5013980;28;19976;-69
2023/04/12 07:06:31;;;;;;;;;;;8.00;99.90;;;;;;4997615;28;19938;-70
2023/04/12 07:08:57;;;;;;;;;;;8.00;99.90;;;;;;5024755;28;19921;-69
2023/04/12 07:11:22;;;;;;;;;;;8.10;99.90;;;;;;5013360;28;19928;-68
2023/04/12 07:13:48;;;;;;;;;;;8.10;99.90;;;;;;5009045;28;19925;-69
2023/04/12 07:16:14;;;;;;;;;;;8.10;99.90;;;;;;5031590;28;20426;-68
2023/04/12 07:18:39;;;;;;;;;;;8.10;99.90;;;;;;5033011;28;19969;-70
2023/04/12 07:21:05;;;;;;;;;;;8.00;99.90;;;;;;5033409;28;20347;-71
2023/04/12 07:23:31;;;;;;;;;;;8.10;99.90;;;;;;5011621;28;19979;-69
2023/04/12 07:26:00;;;;;;;;;;;8.10;99.90;;;;;;4998407;28;19917;-69
2023/04/12 07:28:26;;;;;;;;;;;8.20;99.90;;;;;;5033123;28;19972;-70
2023/04/12 07:30:51;;;;;;;;;;;8.20;99.90;;;;;;5032978;28;20376;-70
2023/04/12 07:33:17;;;;;;;;;;;8.10;99.90;;;;;;5032743;28;19921;-70
2023/04/12 07:35:42;;;;;;;;;;;8.50;99.90;;;;;;5033406;28;19917;-70
2023/04/12 07:38:08;;;;;;;;;;;8.10;99.90;;;;;;5015291;28;20004;-69
2023/04/12 07:40:33;;;;;;;;;;;8.30;99.90;;;;;;5013642;28;20292;-70
2023/04/12 07:42:59;;;;;;;;;;;8.00;99.90;;;;;;5033126;28;19957;-69
2023/04/12 07:45:25;;;;;;;;;;;8.00;99.90;;;;;;5033102;28;19924;-69
2023/04/12 07:47:50;;;;;;;;;;;7.90;99.90;;;;;;5015061;28;20273;-68
2023/04/12 07:50:16;;;;;;;;;;;7.90;99.90;;;;;;5032859;28;19928;-69
2023/04/12 07:52:41;;;;;;;;;;;8.00;99.90;;;;;;5015482;28;19924;-69
2023/04/12 07:55:08;;;;;;;;;;;7.90;99.90;;;;;;5014513;28;19921;-69
2023/04/12 07:57:34;;;;;;;;;;;8.00;99.90;;;;;;5015316;28;19921;-69
2023/04/12 08:00:00;;;;;;;;;;;9.10;99.90;;;;;;5031921;28;20290;-69
2023/04/12 08:02:25;;;;;;;;;;;8.20;99.90;;;;;;5014518;28;19967;-69
2023/04/12 08:04:51;;;;;;;;;;;8.10;99.90;;;;;;5015103;28;19971;-69
2023/04/12 08:07:16;;;;;;;;;;;8.60;99.90;;;;;;5033126;28;19928;-70
2023/04/12 08:09:42;;;;;;;;;;;8.20;99.90;;;;;;5030588;28;19925;-69
2023/04/12 08:12:07;;;;;;;;;;;8.90;99.90;;;;;;5014551;28;19944;-69
2023/04/12 08:14:33;;;;;;;;;;;8.30;99.90;;;;;;5031677;28;19921;-70
2023/04/12 08:16:59;;;;;;;;;;;8.80;99.90;;;;;;5032677;28;19929;-69
2023/04/12 08:19:25;;;;;;;;;;;8.40;99.90;;;;;;5033214;28;20360;-70
2023/04/12 08:21:50;;;;;;;;;;;8.60;99.90;;;;;;5032141;28;19988;-68
2023/04/12 08:24:16;;;;;;;;;;;8.80;99.90;;;;;;5014921;28;20007;-69
2023/04/12 08:26:41;;;;;;;;;;;9.00;99.90;;;;;;5032755;28;19928;-69
2023/04/12 08:29:07;;;;;;;;;;;9.30;99.90;;;;;;5013347;28;19921;-69
2023/04/12 08:31:32;;;;;;;;;;;9.40;99.90;;;;;;5015016;28;19928;-68
2023/04/12 08:33:58;;;;;;;;;;;9.50;99.90;;;;;;5001129;28;19948;-69
2023/04/12 08:36:24;;;;;;;;;;;9.50;99.90;;;;;;5012372;28;19922;-69
2023/04/12 08:38:51;;;;;;;;;;;9.60;99.90;;;;;;4995457;28;20274;-69
2023/04/12 08:41:17;;;;;;;;;;;9.60;99.90;;;;;;5012994;28;20377;-69
2023/04/12 08:43:46;;;;;;;;;;;9.60;99.90;;;;;;5011938;28;20020;-69
2023/04/12 08:46:14;;;;;;;;;;;9.60;99.90;;;;;;5012788;28;19928;-68
2023/04/12 08:48:42;;;;;;;;;;;9.60;99.90;;;;;;4995367;28;19921;-69
2023/04/12 08:51:10;;;;;;;;;;;9.60;99.90;;;;;;5011909;28;19928;-69
2023/04/12 08:53:35;;;;;;;;;;;9.70;99.90;;;;;;5013470;28;19922;-69
2023/04/12 08:56:06;;;;;;;;;;;10.20;99.90;;;;;;4995179;28;20281;-70
2023/04/12 08:58:32;;;;;;;;;;;10.90;99.90;;;;;;5011940;28;19944;-70
2023/04/12 09:00:59;;;;;;;;;;;11.90;99.90;;;;;;4994657;28;19921;-70
2023/04/12 09:03:25;;;;;;;;;;;12.10;99.90;;;;;;4995046;28;19921;-70
2023/04/12 09:05:50;;;;;;;;;;;12.50;99.90;;;;;;4994414;28;19943;-70
2023/04/12 09:08:16;;;;;;;;;;;12.70;99.90;;;;;;5012649;28;19921;-70
2023/04/12 09:10:41;;;;;;;;;;;13.10;99.90;;;;;;5013165;28;19940;-71
2023/04/12 09:13:07;;;;;;;;;;;13.50;99.90;;;;;;5011330;28;20388;-71
2023/04/12 09:15:33;;;;;;;;;;;13.80;99.90;;;;;;5012333;28;19928;-70
2023/04/12 09:18:06;;;;;;;;;;;13.30;99.90;;;;;;4994039;28;19944;-70
2023/04/12 09:20:32;;;;;;;;;;;13.50;99.90;;;;;;5012564;28;19922;-70
2023/04/12 09:22:58;;;;;;;;;;;13.20;99.90;;;;;;4997853;28;19928;-70
2023/04/12 09:25:37;;;;;;;;;;;13.30;99.90;;;;;;4999591;28;20032;-70
2023/04/12 09:28:03;;;;;;;;;;;13.40;99.90;;;;;;5017820;28;20372;-70
2023/04/12 09:30:28;;;;;;;;;;;13.40;99.90;;;;;;5017995;28;19921;-71
2023/04/12 09:32:54;;;;;;;;;;;14.20;99.90;;;;;;5034888;28;19928;-71
2023/04/12 09:35:33;;;;;;;;;;;14.80;99.90;;;;;;5002954;28;19928;-71
2023/04/12 09:38:05;;;;;;;;;;;15.30;99.90;;;;;;5015567;28;19932;-70
2023/04/12 09:40:35;;;;;;;;;;;15.30;99.90;;;;;;5017795;28;20066;-71
2023/04/12 09:43:01;;;;;;;;;;;15.20;99.90;;;;;;5017672;28;20018;-70
2023/04/12 09:45:27;;;;;;;;;;;15.20;99.90;;;;;;5035874;28;19921;-70
2023/04/12 09:47:56;;;;;;;;;;;15.80;99.90;;;;;;5034310;28;19917;-71
2023/04/12 09:50:27;;;;;;;;;;;15.90;99.90;;;;;;5017657;28;20292;-70
2023/04/12 09:52:53;;;;;;;;;;;15.90;99.90;;;;;;5035192;28;20383;-71
2023/04/12 09:55:20;;;;;;;;;;;15.30;99.90;;;;;;5016792;28;19925;-70
2023/04/12 09:57:46;;;;;;;;;;;15.80;99.90;;;;;;5035367;28;19928;-70
2023/04/12 10:00:16;;;;;;;;;;;16.10;99.90;;;;;;5032670;28;19925;-70
2023/04/12 10:02:42;;;;;;;;;;;16.30;99.90;;;;;;5015144;28;19922;-70
2023/04/12 10:05:12;;;;;;;;;;;17.10;99.30;;;;;;5016080;28;19921;-70
2023/04/12 10:07:41;;;;;;;;;;;16.80;97.90;;;;;;5024341;28;19956;-70
2023/04/12 10:10:07;;;;;;;;;;;16.30;98.10;;;;;;5016906;28;19968;-70
2023/04/12 10:12:34;;;;;;;;;;;16.60;97.10;;;;;;5017206;28;20019;-71
2023/04/12 10:15:06;;;;;;;;;;;17.10;99.90;;;;;;5030731;28;19927;-71
2023/04/12 10:17:33;;;;;;;;;;;17.30;98.70;;;;;;5013787;28;19922;-70
2023/04/12 10:19:59;;;;;;;;;;;17.00;99.70;;;;;;5015043;28;19978;-75
2023/04/12 10:22:25;;;;;;;;;;;17.30;99.20;;;;;;5026280;28;20011;-75
2023/04/12 10:24:53;;;;;;;;;;;17.20;98.20;;;;;;5031730;28;20004;-72
2023/04/12 10:27:26;;;;;;;;;;;16.90;99.40;;;;;;5016684;28;19922;-72
2023/04/12 10:29:51;;;;;;;;;;;16.50;99.90;;;;;;5032431;28;19927;-72
2023/04/12 10:32:19;;;;;;;;;;;16.10;99.20;;;;;;5034128;28;20015;-72
2023/04/12 10:34:48;;;;;;;;;;;16.00;99.90;;;;;;5016779;28;20270;-72
2023/04/12 10:37:14;;;;;;;;;;;15.30;99.60;;;;;;5015767;28;20023;-75
2023/04/12 10:39:46;;;;;;;;;;;14.90;99.90;;;;;;5021360;28;19921;-73
2023/04/12 10:42:25;;;;;;;;;;;15.10;99.90;;;;;;5010358;28;19936;-72
2023/04/12 10:45:10;;;;;;;;;;;15.20;99.90;;;;;;5013443;28;19922;-72
2023/04/12 10:47:47;;;;;;;;;;;16.20;99.90;;;;;;5014633;28;19921;-72
2023/04/12 10:50:26;;;;;;;;;;;17.00;99.90;;;;;;5013487;28;20024;-74
2023/04/12 10:53:17;;;;;;;;;;;17.70;99.70;;;;;;4996429;28;20392;-76
2023/04/12 10:55:43;;;;;;;;;;;18.30;99.90;;;;;;5009125;28;20362;-75
2023/04/12 10:58:09;;;;;;;;;;;19.10;99.90;;;;;;4995670;28;19925;-78
2023/04/12 11:00:54;;;;;;;;;;;19.20;97.40;;;;;;5007072;28;20364;-75
2023/04/12 11:03:20;;;;;;;;;;;18.80;95.80;;;;;;5015930;28;19931;-75
2023/04/12 11:06:02;;;;;;;;;;;18.30;98.20;;;;;;5021697;28;19928;-76
2023/04/12 11:08:28;;;;;;;;;;;18.10;98.80;;;;;;5005046;28;20324;-74
2023/04/12 11:11:02;;;;;;;;;;;18.30;97.80;;;;;;4999161;28;19968;-74
2023/04/12 11:13:28;;;;;;;;;;;19.00;97.80;;;;;;5022436;28;20013;-77
2023/04/12 11:15:55;;;;;;;;;;;18.80;99.20;;;;;;5015954;28;20654;-80
2023/04/12 11:18:24;;;;;;;;;;;18.70;98.10;;;;;;5011047;28;19921;-75
2023/04/12 11:20:51;;;;;;;;;;;19.00;97.00;;;;;;5032830;28;19921;-77
2023/04/12 11:23:17;;;;;;;;;;;19.60;96.00;;;;;;5033794;28;19921;-75
2023/04/12 11:25:43;;;;;;;;;;;19.30;95.60;;;;;;5015444;28;20372;-74
2023/04/12 11:28:08;;;;;;;;;;;18.70;95.10;;;;;;5015805;28;19928;-74
2023/04/12 11:30:34;;;;;;;;;;;19.20;96.90;;;;;;5013324;28;19924;-74
2023/04/12 11:32:59;;;;;;;;;;;19.80;96.30;;;;;;5013633;28;19928;-74
2023/04/12 11:35:29;;;;;;;;;;;20.00;96.30;;;;;;5010349;28;20438;-74
2023/04/12 11:37:56;;;;;;;;;;;20.20;95.70;;;;;;4999885;28;20390;-75
2023/04/12 11:40:22;;;;;;;;;;;20.50;95.90;;;;;;5014844;28;20269;-73
2023/04/12 11:42:47;;;;;;;;;;;20.40;93.80;;;;;;5015788;28;19921;-78
2023/04/12 11:45:18;;;;;;;;;;;20.50;94.60;;;;;;5033027;28;19921;-74
2023/04/12 11:47:47;;;;;;;;;;;19.90;94.60;;;;;;5033131;28;19920;-74
2023/04/12 11:50:26;;;;;;;;;;;19.60;94.50;;;;;;5032675;28;20215;-75
2023/04/12 11:52:51;;;;;;;;;;;19.30;94.30;;;;;;4992976;28;20024;-73
2023/04/12 11:55:17;;;;;;;;;;;19.50;94.50;;;;;;5013382;28;20009;-74
2023/04/12 11:57:49;;;;;;;;;;;20.10;93.70;;;;;;5014756;28;19927;-74
2023/04/12 12:00:15;;;;;;;;;;;20.30;93.30;;;;;;5013700;28;20293;-75
2023/04/12 12:02:40;;;;;;;;;;;19.70;93.30;;;;;;5007482;28;19917;-77
2023/04/12 12:05:06;;;;;;;;;;;19.40;93.20;;;;;;5019214;28;20332;-76
2023/04/12 12:07:32;;;;;;;;;;;19.70;92.50;;;;;;5009010;28;19940;-74
2023/04/12 12:09:57;;;;;;;;;;;19.80;93.20;;;;;;5032275;28;19992;-75
2023/04/12 12:12:23;;;;;;;;;;;19.00;93.00;;;;;;5014174;28;19925;-75
2023/04/12 12:14:48;;;;;;;;;;;18.30;93.70;;;;;;5011740;28;19921;-74
2023/04/12 12:17:15;;;;;;;;;;;17.90;95.10;;;;;;5025178;28;19921;-75
2023/04/12 12:19:41;;;;;;;;;;;18.30;95.80;;;;;;5031396;28;19971;-75
2023/04/12 12:22:11;;;;;;;;;;;18.60;93.00;;;;;;5031056;28;19921;-75
2023/04/12 12:24:38;;;;;;;;;;;18.20;92.60;;;;;;5013639;28;19932;-76
2023/04/12 12:27:03;;;;;;;;;;;18.60;93.40;;;;;;5007260;28;19928;-75
2023/04/12 12:29:36;;;;;;;;;;;18.00;94.60;;;;;;5012251;28;19926;-75
2023/04/12 12:32:02;;;;;;;;;;;18.30;93.90;;;;;;4997031;28;19980;-74
2023/04/12 12:34:32;;;;;;;;;;;17.90;93.30;;;;;;4994649;28;19956;-75
2023/04/12 12:36:58;;;;;;;;;;;17.90;94.60;;;;;;5011552;28;19921;-75
2023/04/12 12:39:23;;;;;;;;;;;18.50;94.40;;;;;;5002274;28;20297;-75
2023/04/12 12:41:53;;;;;;;;;;;18.60;95.50;;;;;;4996603;28;19926;-74
2023/04/12 12:44:22;;;;;;;;;;;19.10;94.10;;;;;;5014852;28;20302;-74
2023/04/12 12:46:48;;;;;;;;;;;19.50;93.40;;;;;;5019658;28;19918;-75
2023/04/12 12:49:14;;;;;;;;;;;19.10;91.40;;;;;;4994341;28;19925;-74
2023/04/12 12:51:40;;;;;;;;;;;19.00;92.10;;;;;;5006931;28;19925;-72
2023/04/12 12:54:06;;;;;;;;;;;18.40;93.10;;;;;;5034157;28;19917;-74
2023/04/12 12:56:32;;;;;;;;;;;17.80;93.20;;;;;;5021574;28;19921;-73
2023/04/12 12:58:57;;;;;;;;;;;17.60;94.00;;;;;;5020452;28;20301;-75
2023/04/12 13:01:23;;;;;;;;;;;17.50;94.00;;;;;;5018823;28;19928;-75
2023/04/12 13:03:48;;;;;;;;;;;17.60;94.20;;;;;;5018763;28;19926;-73
2023/04/12 13:06:14;;;;;;;;;;;17.40;94.20;;;;;;5015258;28;19964;-74
2023/04/12 13:08:39;;;;;;;;;;;16.60;94.10;;;;;;5016364;28;19925;-73
2023/04/12 13:11:05;;;;;;;;;;;16.30;95.10;;;;;;5015467;28;19925;-75
2023/04/12 13:13:31;;;;;;;;;;;16.40;95.50;;;;;;5024271;28;19928;-72
2023/04/12 13:15:56;;;;;;;;;;;16.20;95.70;;;;;;5009138;28;20556;-73
2023/04/12 13:18:22;;;;;;;;;;;15.80;95.30;;;;;;5024428;28;20276;-73
2023/04/12 13:20:47;;;;;;;;;;;15.80;96.30;;;;;;5027147;28;19948;-73
2023/04/12 13:23:13;;;;;;;;;;;15.90;96.10;;;;;;5006594;28;20004;-70
2023/04/12 13:25:39;;;;;;;;;;;15.60;96.50;;;;;;5000841;28;19932;-70
2023/04/12 13:28:04;;;;;;;;;;;15.10;95.90;;;;;;5029993;28;19968;-71
2023/04/12 13:30:30;;;;;;;;;;;15.20;97.40;;;;;;5005106;28;19928;-71
2023/04/12 13:32:58;;;;;;;;;;;15.00;96.30;;;;;;5031259;28;19921;-73
2023/04/12 13:35:24;;;;;;;;;;;15.00;95.90;;;;;;5016097;28;19967;-72
2023/04/12 13:37:49;;;;;;;;;;;15.00;96.00;;;;;;5000162;28;19925;-72
2023/04/12 13:40:15;;;;;;;;;;;14.90;95.80;;;;;;5013715;28;19928;-73
2023/04/12 13:42:41;;;;;;;;;;;14.40;95.50;;;;;;5005342;28;20395;-73
2023/04/12 13:45:07;;;;;;;;;;;14.80;96.10;;;;;;5022690;28;20044;-73
2023/04/12 13:47:38;;;;;;;;;;;14.70;96.20;;;;;;5011439;28;19917;-74
2023/04/12 13:50:04;;;;;;;;;;;14.50;96.40;;;;;;5015558;28;20007;-73
2023/04/12 13:52:29;;;;;;;;;;;14.40;96.50;;;;;;5026459;28;19921;-73
2023/04/12 13:54:56;;;;;;;;;;;14.50;96.70;;;;;;5010188;28;20365;-72
2023/04/12 13:57:24;;;;;;;;;;;14.50;97.60;;;;;;5028537;28;20356;-72
2023/04/12 13:59:50;;;;;;;;;;;14.60;97.20;;;;;;5017697;28;20019;-73
2023/04/12 14:02:15;;;;;;;;;;;14.90;96.70;;;;;;5027806;28;20004;-73
2023/04/12 14:04:51;;;;;;;;;;;14.50;96.70;;;;;;4997253;28;20341;-74
2023/04/12 14:07:17;;;;;;;;;;;14.60;98.10;;;;;;5000927;28;19967;-74
2023/04/12 14:09:42;;;;;;;;;;;14.40;97.20;;;;;;5017446;28;20262;-74
2023/04/12 14:12:08;;;;;;;;;;;14.20;97.40;;;;;;5011964;28;19921;-72
2023/04/12 14:14:34;;;;;;;;;;;14.00;98.60;;;;;;5030668;28;19925;-73
2023/04/12 14:17:00;;;;;;;;;;;13.90;98.20;;;;;;5003693;28;20369;-72
2023/04/12 14:19:35;;;;;;;;;;;13.80;99.20;;;;;;5023015;28;19964;-71
2023/04/12 14:22:01;;;;;;;;;;;13.50;99.80;;;;;;5032413;28;20273;-73
2023/04/12 14:24:26;;;;;;;;;;;13.40;99.90;;;;;;5030661;28;19921;-73
2023/04/12 14:26:53;;;;;;;;;;;13.10;99.90;;;;;;5008210;28;19928;-74